Time,TemperatureF,DewpointF,PressureIn,WindDirection,WindDirectionDegrees,WindSpeedMPH,WindSpeedGustMPH,Humidity,HourlyPrecipIn,Conditions,Clouds,dailyrainin,SoftwareType,DateUTC
2013-01-08 00:02:00,21.6,20.0,30.41,NW,317,0.0,1.0,94,0.00,,,0.00,weatherlink.com 1.10,2013-01-08 05:02:00,
2013-01-08 00:17:00,21.3,20.0,30.40,NW,317,0.0,0.0,94,0.00,,,0.00,weatherlink.com 1.10,2013-01-08 05:17:00,
2013-01-08 00:33:00,21.2,20.0,30.40,NW,317,0.0,0.0,94,0.00,,,0.00,weatherlink.com 1.10,2013-01-08 05:33:00,
2013-01-08 00:48:00,21.3,20.0,30.40,NW,317,0.0,0.0,94,0.00,,,0.00,weatherlink.com 1.10,2013-01-08 05:48:00,
2013-01-08 01:02:00,21.5,20.0,30.40,NW,317,0.0,0.0,94,0.00,,,0.00,weatherlink.com 1.10,2013-01-08 06:02:00,
2013-01-08 01:19:00,21.2,20.0,30.39,NW,317,0.0,0.0,94,0.00,,,0.00,weatherlink.com 1.10,2013-01-08 06:19:00,
2013-01-08 01:33:00,21.1,20.0,30.39,NW,317,0.0,0.0,94,0.00,,,0.00,weatherlink.com 1.10,2013-01-08 06:33:00,
2013-01-08 01:48:00,21.2,20.0,30.39,NW,317,0.0,0.0,94,0.00,,,0.00,weatherlink.com 1.10,2013-01-08 06:48:00,
2013-01-08 02:03:00,21.7,20.0,30.39,NW,317,0.0,1.0,94,0.00,,,0.00,weatherlink.com 1.10,2013-01-08 07:03:00,
2013-01-08 02:18:00,21.6,20.0,30.39,NW,317,0.0,0.0,94,0.00,,,0.00,weatherlink.com 1.10,2013-01-08 07:18:00,
2013-01-08 02:34:00,21.6,20.0,30.38,NW,317,0.0,0.0,94,0.00,,,0.00,weatherlink.com 1.10,2013-01-08 07:34:00,
2013-01-08 02:49:00,21.5,20.0,30.38,NW,317,0.0,1.0,94,0.00,,,0.00,weatherlink.com 1.10,2013-01-08 07:49:00,
2013-01-08 03:03:00,21.3,20.0,30.38,NW,317,0.0,0.0,94,0.00,,,0.00,weatherlink.com 1.10,2013-01-08 08:03:00,
2013-01-08 03:20:00,21.0,20.0,30.38,NW,317,0.0,0.0,94,0.00,,,0.00,weatherlink.com 1.10,2013-01-08 08:20:00,
2013-01-08 03:34:00,20.8,19.0,30.38,NW,317,0.0,0.0,94,0.00,,,0.00,weatherlink.com 1.10,2013-01-08 08:34:00,
2013-01-08 03:49:00,20.9,20.0,30.38,NW,317,0.0,0.0,94,0.00,,,0.00,weatherlink.com 1.10,2013-01-08 08:49:00,
2013-01-08 04:04:00,21.0,20.0,30.38,NW,317,0.0,0.0,94,0.00,,,0.00,weatherlink.com 1.10,2013-01-08 09:04:00,
2013-01-08 04:19:00,20.9,20.0,30.39,NW,317,0.0,2.0,94,0.00,,,0.00,weatherlink.com 1.10,2013-01-08 09:19:00,
2013-01-08 04:34:00,20.8,19.0,30.39,NW,317,0.0,0.0,94,0.00,,,0.00,weatherlink.com 1.10,2013-01-08 09:34:00,
2013-01-08 04:50:00,21.4,20.0,30.39,NW,317,0.0,0.0,94,0.00,,,0.00,weatherlink.com 1.10,2013-01-08 09:50:00,
2013-01-08 05:05:00,21.5,20.0,30.39,NW,317,0.0,0.0,94,0.00,,,0.00,weatherlink.com 1.10,2013-01-08 10:05:00,
2013-01-08 05:20:00,21.3,20.0,30.39,NW,317,0.0,0.0,94,0.00,,,0.00,weatherlink.com 1.10,2013-01-08 10:20:00,
2013-01-08 05:34:00,21.1,20.0,30.40,NW,317,0.0,0.0,94,0.00,,,0.00,weatherlink.com 1.10,2013-01-08 10:34:00,
2013-01-08 05:49:00,20.9,20.0,30.40,NW,317,0.0,0.0,94,0.00,,,0.00,weatherlink.com 1.10,2013-01-08 10:49:00,
2013-01-08 06:04:00,20.7,19.0,30.39,NW,317,0.0,1.0,94,0.00,,,0.00,weatherlink.com 1.10,2013-01-08 11:04:00,
2013-01-08 06:20:00,21.5,20.0,30.40,NW,317,0.0,1.0,94,0.00,,,0.00,weatherlink.com 1.10,2013-01-08 11:20:00,
2013-01-08 06:35:00,21.1,20.0,30.40,NW,317,0.0,1.0,94,0.00,,,0.00,weatherlink.com 1.10,2013-01-08 11:35:00,
2013-01-08 06:50:00,21.6,20.0,30.41,NW,317,0.0,0.0,94,0.00,,,0.00,weatherlink.com 1.10,2013-01-08 11:50:00,
2013-01-08 07:05:00,21.5,20.0,30.41,NW,317,0.0,0.0,94,0.00,,,0.00,weatherlink.com 1.10,2013-01-08 12:05:00,
2013-01-08 07:19:00,21.2,20.0,30.41,NW,317,0.0,1.0,94,0.00,,,0.00,weatherlink.com 1.10,2013-01-08 12:19:00,
2013-01-08 07:36:00,21.0,20.0,30.41,NW,317,0.0,0.0,94,0.00,,,0.00,weatherlink.com 1.10,2013-01-08 12:36:00,
2013-01-08 07:50:00,21.3,20.0,30.42,NW,317,0.0,0.0,94,0.00,,,0.00,weatherlink.com 1.10,2013-01-08 12:50:00,
2013-01-08 08:05:00,21.5,20.0,30.43,NW,317,0.0,3.0,94,0.00,,,0.00,weatherlink.com 1.10,2013-01-08 13:05:00,
2013-01-08 08:21:00,22.6,21.0,30.42,NW,317,0.0,0.0,94,0.00,,,0.00,weatherlink.com 1.10,2013-01-08 13:21:00,
2013-01-08 08:36:00,24.4,23.0,30.42,NW,317,0.0,2.0,94,0.00,,,0.00,weatherlink.com 1.10,2013-01-08 13:36:00,
2013-01-08 08:50:00,25.9,24.0,30.43,NW,317,0.0,0.0,94,0.00,,,0.00,weatherlink.com 1.10,2013-01-08 13:50:00,
2013-01-08 09:07:00,28.7,27.0,30.43,NW,317,0.0,2.0,94,0.00,,,0.00,weatherlink.com 1.10,2013-01-08 14:07:00,
2013-01-08 09:21:00,32.5,31.0,30.43,NW,317,0.0,1.0,92,0.00,,,0.00,weatherlink.com 1.10,2013-01-08 14:21:00,
2013-01-08 09:36:00,34.3,31.0,30.42,West,263,2.0,3.0,86,0.00,,,0.00,weatherlink.com 1.10,2013-01-08 14:36:00,
2013-01-08 09:52:00,35.6,31.0,30.42,WSW,240,0.0,4.0,83,0.00,,,0.00,weatherlink.com 1.10,2013-01-08 14:52:00,
2013-01-08 10:06:00,36.5,32.0,30.42,SW,224,0.0,4.0,82,0.00,,,0.00,weatherlink.com 1.10,2013-01-08 15:06:00,
2013-01-08 10:21:00,36.6,31.0,30.42,West,273,2.0,5.0,81,0.00,,,0.00,weatherlink.com 1.10,2013-01-08 15:21:00,
2013-01-08 10:37:00,37.4,31.0,30.41,West,279,3.0,6.0,79,0.00,,,0.00,weatherlink.com 1.10,2013-01-08 15:37:00,
2013-01-08 10:52:00,37.9,32.0,30.40,West,263,4.0,6.0,78,0.00,,,0.00,weatherlink.com 1.10,2013-01-08 15:52:00,
2013-01-08 11:06:00,37.9,32.0,30.41,WNW,286,2.0,6.0,78,0.00,,,0.00,weatherlink.com 1.10,2013-01-08 16:06:00,
2013-01-08 11:23:00,39.1,33.0,30.40,WNW,295,4.0,5.0,78,0.00,,,0.00,weatherlink.com 1.10,2013-01-08 16:23:00,
2013-01-08 11:36:00,39.4,32.0,30.40,SSW,205,4.0,7.0,75,0.00,,,0.00,weatherlink.com 1.10,2013-01-08 16:36:00,
2013-01-08 11:53:00,39.9,33.0,30.40,WSW,237,5.0,7.0,75,0.00,,,0.00,weatherlink.com 1.10,2013-01-08 16:53:00,
2013-01-08 12:07:00,40.4,32.0,30.40,NW,308,4.0,6.0,73,0.00,,,0.00,weatherlink.com 1.10,2013-01-08 17:07:00,
2013-01-08 12:23:00,40.9,33.0,30.39,West,259,1.0,7.0,73,0.00,,,0.00,weatherlink.com 1.10,2013-01-08 17:23:00,
2013-01-08 12:37:00,41.7,33.0,30.38,West,266,4.0,8.0,71,0.00,,,0.00,weatherlink.com 1.10,2013-01-08 17:37:00,
2013-01-08 12:52:00,41.6,33.0,30.39,West,277,1.0,6.0,71,0.00,,,0.00,weatherlink.com 1.10,2013-01-08 17:52:00,
2013-01-08 13:08:00,42.7,34.0,30.38,SW,223,3.0,6.0,70,0.00,,,0.00,weatherlink.com 1.10,2013-01-08 18:08:00,
2013-01-08 13:22:00,43.3,34.0,30.38,West,277,1.0,6.0,69,0.00,,,0.00,weatherlink.com 1.10,2013-01-08 18:22:00,
2013-01-08 13:37:00,44.2,35.0,30.38,West,267,0.0,5.0,70,0.00,,,0.00,weatherlink.com 1.10,2013-01-08 18:37:00,
2013-01-08 13:54:00,43.4,33.0,30.39,West,279,0.0,3.0,68,0.00,,,0.00,weatherlink.com 1.10,2013-01-08 18:54:00,
2013-01-08 14:08:00,44.4,34.0,30.38,SSW,209,1.0,5.0,66,0.00,,,0.00,weatherlink.com 1.10,2013-01-08 19:08:00,
2013-01-08 14:23:00,44.6,33.0,30.38,South,178,5.0,5.0,65,0.00,,,0.00,weatherlink.com 1.10,2013-01-08 19:23:00,
2013-01-08 14:37:00,44.3,33.0,30.38,SW,216,0.0,7.0,64,0.00,,,0.00,weatherlink.com 1.10,2013-01-08 19:37:00,
2013-01-08 14:54:00,44.7,33.0,30.39,West,263,0.0,5.0,64,0.00,,,0.00,weatherlink.com 1.10,2013-01-08 19:54:00,
2013-01-08 15:08:00,45.2,34.0,30.39,WNW,286,2.0,6.0,64,0.00,,,0.00,weatherlink.com 1.10,2013-01-08 20:08:00,
2013-01-08 15:23:00,44.3,33.0,30.40,West,275,1.0,5.0,65,0.00,,,0.00,weatherlink.com 1.10,2013-01-08 20:23:00,
2013-01-08 15:39:00,44.3,34.0,30.40,SSW,206,0.0,4.0,66,0.00,,,0.00,weatherlink.com 1.10,2013-01-08 20:39:00,
2013-01-08 15:54:00,43.1,33.0,30.40,WNW,292,0.0,2.0,68,0.00,,,0.00,weatherlink.com 1.10,2013-01-08 20:54:00,
2013-01-08 16:09:00,43.1,33.0,30.40,WNW,292,0.0,3.0,68,0.00,,,0.00,weatherlink.com 1.10,2013-01-08 21:09:00,
2013-01-08 16:23:00,42.8,33.0,30.40,WNW,292,0.0,1.0,69,0.00,,,0.00,weatherlink.com 1.10,2013-01-08 21:23:00,
2013-01-08 16:38:00,41.0,33.0,30.40,WNW,292,0.0,0.0,72,0.00,,,0.00,weatherlink.com 1.10,2013-01-08 21:38:00,
2013-01-08 16:54:00,38.1,32.0,30.40,WNW,292,0.0,0.0,77,0.00,,,0.00,weatherlink.com 1.10,2013-01-08 21:54:00,
2013-01-08 17:09:00,35.6,30.0,30.40,WNW,292,0.0,0.0,81,0.00,,,0.00,weatherlink.com 1.10,2013-01-08 22:09:00,
2013-01-08 17:24:00,33.7,30.0,30.40,WNW,292,0.0,2.0,85,0.00,,,0.00,weatherlink.com 1.10,2013-01-08 22:24:00,
2013-01-08 17:38:00,32.2,29.0,30.40,WNW,292,0.0,1.0,86,0.00,,,0.00,weatherlink.com 1.10,2013-01-08 22:38:00,
2013-01-08 17:55:00,30.7,28.0,30.40,WNW,292,0.0,0.0,88,0.00,,,0.00,weatherlink.com 1.10,2013-01-08 22:55:00,
2013-01-08 18:10:00,29.8,27.0,30.41,WNW,292,0.0,0.0,90,0.00,,,0.00,weatherlink.com 1.10,2013-01-08 23:10:00,
2013-01-08 18:25:00,29.5,27.0,30.40,WNW,292,0.0,0.0,91,0.00,,,0.00,weatherlink.com 1.10,2013-01-08 23:25:00,
2013-01-08 18:39:00,28.5,26.0,30.40,WNW,292,0.0,0.0,90,0.00,,,0.00,weatherlink.com 1.10,2013-01-08 23:39:00,
2013-01-08 18:54:00,28.5,26.0,30.41,WNW,292,0.0,0.0,91,0.00,,,0.00,weatherlink.com 1.10,2013-01-08 23:54:00,
2013-01-08 19:10:00,27.7,26.0,30.40,WNW,292,0.0,0.0,92,0.00,,,0.00,weatherlink.com 1.10,2013-01-09 00:10:00,
2013-01-08 19:24:00,27.5,26.0,30.40,WNW,292,0.0,0.0,92,0.00,,,0.00,weatherlink.com 1.10,2013-01-09 00:24:00,
2013-01-08 19:40:00,27.0,25.0,30.40,WNW,292,0.0,1.0,93,0.00,,,0.00,weatherlink.com 1.10,2013-01-09 00:40:00,
2013-01-08 19:55:00,26.6,25.0,30.41,WNW,292,0.0,1.0,93,0.00,,,0.00,weatherlink.com 1.10,2013-01-09 00:55:00,
2013-01-08 20:10:00,27.1,25.0,30.41,WNW,292,0.0,0.0,93,0.00,,,0.00,weatherlink.com 1.10,2013-01-09 01:10:00,
2013-01-08 20:25:00,26.6,25.0,30.40,WNW,292,0.0,0.0,93,0.00,,,0.00,weatherlink.com 1.10,2013-01-09 01:25:00,
2013-01-08 20:41:00,26.2,25.0,30.41,WNW,292,0.0,1.0,94,0.00,,,0.00,weatherlink.com 1.10,2013-01-09 01:41:00,
2013-01-08 20:55:00,26.7,25.0,30.40,WNW,292,0.0,2.0,94,0.00,,,0.00,weatherlink.com 1.10,2013-01-09 01:55:00,
2013-01-08 21:10:00,27.0,26.0,30.40,WNW,292,0.0,1.0,94,0.00,,,0.00,weatherlink.com 1.10,2013-01-09 02:10:00,
2013-01-08 21:26:00,25.9,24.0,30.40,WNW,292,0.0,0.0,94,0.00,,,0.00,weatherlink.com 1.10,2013-01-09 02:26:00,
2013-01-08 21:40:00,25.7,24.0,30.41,WNW,292,0.0,0.0,94,0.00,,,0.00,weatherlink.com 1.10,2013-01-09 02:40:00,
2013-01-08 21:55:00,25.4,24.0,30.42,WNW,292,0.0,0.0,94,0.00,,,0.00,weatherlink.com 1.10,2013-01-09 02:55:00,
2013-01-08 22:26:00,24.8,23.0,30.42,WNW,292,0.0,0.0,94,0.00,,,0.00,weatherlink.com 1.10,2013-01-09 03:26:00,
2013-01-08 22:42:00,24.9,24.0,30.41,WNW,292,0.0,0.0,94,0.00,,,0.00,weatherlink.com 1.10,2013-01-09 03:42:00,
2013-01-08 22:56:00,24.9,24.0,30.41,WNW,292,0.0,0.0,94,0.00,,,0.00,weatherlink.com 1.10,2013-01-09 03:56:00,
2013-01-08 23:11:00,24.8,23.0,30.41,WNW,292,0.0,0.0,94,0.00,,,0.00,weatherlink.com 1.10,2013-01-09 04:11:00,
2013-01-08 23:27:00,24.6,23.0,30.41,WNW,292,0.0,0.0,95,0.00,,,0.00,weatherlink.com 1.10,2013-01-09 04:27:00,
2013-01-08 23:41:00,24.3,23.0,30.41,WNW,292,0.0,0.0,95,0.00,,,0.00,weatherlink.com 1.10,2013-01-09 04:41:00,
2013-01-08 23:56:00,24.0,23.0,30.41,WNW,292,0.0,0.0,95,0.00,,,0.00,weatherlink.com 1.10,2013-01-09 04:56:00,